Time;durP1;ratioP1;P1;durP2;ratioP2;P2;SDS_P1;SDS_P2;PMS_P1;PMS_P2;Temp;Humidity;BMP_temperature;BMP_pressure;BME280_temperature;BME280_humidity;BME280_pressure;Samples;Min_cycle;Max_cycle;Signal;HPM_P1;HPM_P2
2023/11/08 00:00:49;;;;;;;3.43;1.60;;;9.40;99.90;;;;;;5094834;28;20204;-63
2023/11/08 00:03:15;;;;;;;2.87;2.03;;;9.40;99.90;;;;;;5090847;28;20240;-63
2023/11/08 00:05:44;;;;;;;2.53;1.80;;;9.40;99.90;;;;;;5092564;28;20440;-63
2023/11/08 00:08:10;;;;;;;2.97;1.70;;;9.40;99.90;;;;;;5091876;28;20434;-63
2023/11/08 00:10:36;;;;;;;4.03;1.70;;;9.50;99.90;;;;;;5092134;28;20425;-63
2023/11/08 00:13:01;;;;;;;2.37;1.53;;;9.40;99.90;;;;;;5090900;28;20670;-63
2023/11/08 00:15:28;;;;;;;3.03;1.53;;;9.40;99.90;;;;;;5095792;28;20418;-63
2023/11/08 00:17:54;;;;;;;2.23;1.60;;;9.40;99.90;;;;;;5091423;28;20195;-64
2023/11/08 00:20:19;;;;;;;4.03;2.30;;;9.50;99.90;;;;;;5091699;28;20473;-64
2023/11/08 00:22:45;;;;;;;2.63;1.50;;;9.40;99.90;;;;;;5094090;28;20995;-64
2023/11/08 00:25:11;;;;;;;2.03;1.40;;;9.50;99.90;;;;;;5091863;28;20184;-63
2023/11/08 00:27:37;;;;;;;2.37;1.37;;;9.50;99.90;;;;;;5092556;28;20464;-64
2023/11/08 00:30:04;;;;;;;3.70;2.10;;;9.50;99.90;;;;;;5089615;28;20417;-64
2023/11/08 00:32:30;;;;;;;2.10;1.70;;;9.50;99.90;;;;;;5091291;28;20511;-64
2023/11/08 00:34:56;;;;;;;3.37;1.53;;;9.60;99.90;;;;;;5089557;28;20428;-64
2023/11/08 00:37:22;;;;;;;2.97;1.63;;;9.60;99.90;;;;;;5091401;28;20559;-64
2023/11/08 00:39:48;;;;;;;2.10;1.70;;;9.40;99.90;;;;;;5092780;28;20246;-64
2023/11/08 00:42:14;;;;;;;3.20;1.53;;;9.40;99.90;;;;;;5089904;28;20560;-64
2023/11/08 00:44:40;;;;;;;3.07;2.23;;;9.40;99.90;;;;;;5091415;28;20192;-64
2023/11/08 00:47:07;;;;;;;5.07;2.03;;;9.40;99.90;;;;;;5072708;28;20437;-64
2023/11/08 00:49:33;;;;;;;1.70;1.50;;;9.40;99.90;;;;;;5089453;28;20430;-64
2023/11/08 00:52:00;;;;;;;2.97;1.60;;;9.40;99.90;;;;;;5091080;28;20433;-64
2023/11/08 00:54:29;;;;;;;2.30;1.77;;;9.40;99.90;;;;;;5090001;28;21197;-64
2023/11/08 00:56:55;;;;;;;1.63;1.40;;;9.40;99.90;;;;;;5090704;28;20457;-64
2023/11/08 00:59:21;;;;;;;3.27;1.23;;;9.40;99.90;;;;;;5090762;28;20430;-64
2023/11/08 01:01:47;;;;;;;2.73;1.70;;;9.40;99.90;;;;;;5091391;28;20477;-64
2023/11/08 01:04:13;;;;;;;3.10;1.70;;;9.50;99.90;;;;;;5087247;28;20894;-64
2023/11/08 01:06:42;;;;;;;4.33;1.70;;;9.50;99.90;;;;;;5091120;28;20433;-64
2023/11/08 01:09:09;;;;;;;4.00;1.90;;;9.40;99.90;;;;;;5091413;28;20430;-64
2023/11/08 01:11:35;;;;;;;3.40;1.77;;;9.50;99.90;;;;;;5089543;28;20425;-64
2023/11/08 01:14:02;;;;;;;2.30;1.60;;;9.50;99.90;;;;;;5093786;28;20460;-64
2023/11/08 01:16:30;;;;;;;3.33;2.23;;;9.60;99.90;;;;;;5090623;28;20422;-64
2023/11/08 01:18:56;;;;;;;2.77;1.60;;;9.50;99.90;;;;;;5091223;28;20430;-64
2023/11/08 01:21:22;;;;;;;11.03;1.80;;;9.60;99.90;;;;;;5089819;28;20551;-64
2023/11/08 01:23:49;;;;;;;3.53;1.53;;;9.60;99.90;;;;;;5090765;28;20225;-64
2023/11/08 01:26:14;;;;;;;2.70;1.80;;;9.50;99.90;;;;;;5092603;28;20507;-64
2023/11/08 01:28:41;;;;;;;4.63;2.00;;;9.50;99.90;;;;;;5091413;28;20549;-64
2023/11/08 01:31:08;;;;;;;2.13;1.53;;;9.50;99.90;;;;;;5091124;28;20926;-63
2023/11/08 01:33:34;;;;;;;2.40;1.60;;;9.50;99.90;;;;;;5089288;28;20426;-64
2023/11/08 01:36:00;;;;;;;3.20;1.50;;;9.40;99.90;;;;;;5090837;28;20437;-63
2023/11/08 01:38:26;;;;;;;2.80;2.07;;;9.30;99.90;;;;;;5089425;28;20946;-63
2023/11/08 01:40:52;;;;;;;4.87;2.23;;;9.30;99.90;;;;;;5091152;28;20216;-64
2023/11/08 01:43:27;;;;;;;3.43;1.70;;;9.20;99.90;;;;;;5086878;28;20237;-64
2023/11/08 01:46:06;;;;;;;2.83;1.90;;;9.20;99.90;;;;;;5090359;28;20556;-63
2023/11/08 01:48:33;;;;;;;2.03;1.50;;;9.20;99.90;;;;;;5089831;28;20785;-64
2023/11/08 01:50:59;;;;;;;4.07;1.80;;;9.30;99.90;;;;;;5090988;28;20907;-64
2023/11/08 01:53:28;;;;;;;2.80;1.60;;;9.30;99.90;;;;;;5088511;28;21234;-63
2023/11/08 01:55:55;;;;;;;3.20;1.50;;;9.30;99.90;;;;;;5088695;28;20435;-63
2023/11/08 01:58:21;;;;;;;3.70;1.37;;;9.30;99.90;;;;;;5089083;28;20442;-64
2023/11/08 02:00:50;;;;;;;5.33;1.67;;;9.20;99.90;;;;;;5089434;28;20476;-64
2023/11/08 02:03:17;;;;;;;2.90;1.70;;;9.30;99.90;;;;;;5087712;28;20429;-63
2023/11/08 02:05:43;;;;;;;4.23;2.07;;;9.30;99.90;;;;;;5090208;28;20433;-64
2023/11/08 02:08:10;;;;;;;3.57;1.40;;;9.20;99.90;;;;;;5093102;28;20904;-64
2023/11/08 02:10:36;;;;;;;2.63;1.80;;;9.20;99.90;;;;;;5089929;28;20479;-64
2023/11/08 02:13:03;;;;;;;3.70;1.63;;;9.30;99.90;;;;;;5089367;28;20437;-63
2023/11/08 02:15:38;;;;;;;2.83;1.57;;;9.30;99.90;;;;;;5089846;28;20436;-64
2023/11/08 02:18:04;;;;;;;2.43;1.40;;;9.30;99.90;;;;;;5089677;28;20434;-64
2023/11/08 02:20:30;;;;;;;3.33;1.53;;;9.30;99.90;;;;;;5088556;28;20481;-64
2023/11/08 02:22:56;;;;;;;3.57;1.77;;;9.20;99.90;;;;;;5088896;28;20204;-64
2023/11/08 02:25:21;;;;;;;3.20;2.07;;;9.20;99.90;;;;;;5089311;28;20239;-63
2023/11/08 02:27:50;;;;;;;2.40;1.50;;;9.10;99.90;;;;;;5089768;28;20244;-64
2023/11/08 02:30:16;;;;;;;2.20;2.00;;;9.10;99.90;;;;;;5088604;28;20779;-63
2023/11/08 02:32:41;;;;;;;3.20;1.47;;;9.10;99.90;;;;;;5074244;28;20423;-63
2023/11/08 02:35:08;;;;;;;2.67;1.77;;;9.10;99.90;;;;;;5089435;28;20595;-64
2023/11/08 02:37:34;;;;;;;2.53;1.53;;;9.10;99.90;;;;;;5089140;28;20215;-63
2023/11/08 02:40:01;;;;;;;4.53;2.10;;;9.10;99.90;;;;;;5088076;28;20472;-63
2023/11/08 02:42:27;;;;;;;1.73;1.53;;;9.20;99.90;;;;;;5087704;28;20940;-63
2023/11/08 02:44:54;;;;;;;2.27;1.50;;;9.20;99.90;;;;;;5088703;28;20483;-64
2023/11/08 02:47:20;;;;;;;4.63;1.53;;;9.30;99.90;;;;;;5087929;28;20521;-64
2023/11/08 02:49:47;;;;;;;4.83;2.10;;;9.30;99.90;;;;;;5089020;28;20724;-63
2023/11/08 02:52:13;;;;;;;2.13;1.43;;;9.30;99.90;;;;;;5089139;28;20843;-63
2023/11/08 02:54:39;;;;;;;2.23;1.17;;;9.30;99.90;;;;;;5087992;28;20428;-64
2023/11/08 02:57:04;;;;;;;5.10;1.67;;;9.20;99.90;;;;;;5089127;28;20440;-63
2023/11/08 02:59:30;;;;;;;3.53;1.63;;;9.30;99.90;;;;;;5083644;28;20187;-64
2023/11/08 03:01:56;;;;;;;1.80;1.40;;;9.20;99.90;;;;;;5089083;28;20180;-64
2023/11/08 03:04:24;;;;;;;1.80;1.20;;;9.30;99.90;;;;;;5090423;28;20184;-64
2023/11/08 03:06:50;;;;;;;1.93;1.10;;;9.20;99.90;;;;;;5088999;28;20184;-63
2023/11/08 03:09:16;;;;;;;2.43;1.40;;;9.20;99.90;;;;;;5087860;28;21084;-64
2023/11/08 03:11:42;;;;;;;5.17;1.43;;;9.20;99.90;;;;;;5088554;28;20426;-64
2023/11/08 03:14:07;;;;;;;3.07;1.60;;;9.20;99.90;;;;;;5088545;28;20516;-63
2023/11/08 03:16:34;;;;;;;2.20;1.40;;;9.20;99.90;;;;;;5088182;28;20208;-64
2023/11/08 03:19:00;;;;;;;3.53;1.37;;;9.20;99.90;;;;;;5089753;28;20207;-63
2023/11/08 03:21:26;;;;;;;5.17;1.60;;;9.20;99.90;;;;;;5088333;28;20602;-64
2023/11/08 03:23:52;;;;;;;2.07;1.50;;;9.20;99.90;;;;;;5087716;28;20239;-64
2023/11/08 03:26:18;;;;;;;4.60;1.53;;;9.10;99.90;;;;;;5091798;28;20223;-64
2023/11/08 03:28:44;;;;;;;4.83;1.80;;;9.20;99.90;;;;;;5087637;28;20595;-63
2023/11/08 03:31:12;;;;;;;3.43;1.60;;;9.20;99.90;;;;;;5089353;28;20188;-64
2023/11/08 03:33:38;;;;;;;3.93;1.30;;;9.20;99.90;;;;;;5085067;28;20562;-64
2023/11/08 03:36:04;;;;;;;6.13;2.00;;;9.20;99.90;;;;;;5088546;28;20483;-63
2023/11/08 03:38:30;;;;;;;5.20;1.80;;;9.30;99.90;;;;;;5092730;28;20487;-64
2023/11/08 03:40:56;;;;;;;2.67;1.90;;;9.30;99.90;;;;;;5087604;28;20866;-64
2023/11/08 03:43:22;;;;;;;2.73;1.53;;;9.30;99.90;;;;;;5087337;28;20577;-64
2023/11/08 03:45:47;;;;;;;3.83;1.80;;;9.40;99.90;;;;;;5088322;28;20437;-64
2023/11/08 03:48:13;;;;;;;3.47;1.90;;;9.40;99.90;;;;;;5091961;28;20206;-64
2023/11/08 03:50:39;;;;;;;2.23;1.67;;;9.40;99.90;;;;;;5088093;28;20187;-64
2023/11/08 03:53:06;;;;;;;3.20;1.70;;;9.40;99.90;;;;;;5086847;28;20184;-64
2023/11/08 03:55:32;;;;;;;5.47;1.47;;;9.40;99.90;;;;;;5087881;28;20250;-64
2023/11/08 03:57:57;;;;;;;3.10;1.13;;;9.40;99.90;;;;;;5087584;28;20430;-64
2023/11/08 04:00:25;;;;;;;3.80;1.60;;;9.40;99.90;;;;;;5086726;28;20285;-64
2023/11/08 04:02:51;;;;;;;4.63;1.63;;;9.40;99.90;;;;;;5086645;28;20220;-64
2023/11/08 04:05:17;;;;;;;2.20;1.63;;;9.40;99.90;;;;;;5090862;28;20985;-63
2023/11/08 04:07:42;;;;;;;3.73;1.60;;;9.30;99.90;;;;;;5088812;28;20423;-64
2023/11/08 04:10:10;;;;;;;3.60;1.80;;;9.30;99.90;;;;;;5087788;28;20859;-63
2023/11/08 04:12:37;;;;;;;1.77;1.40;;;9.40;99.90;;;;;;5087300;28;20175;-64
2023/11/08 04:15:04;;;;;;;2.77;1.93;;;9.30;99.90;;;;;;5090826;28;20828;-63
2023/11/08 04:17:30;;;;;;;2.73;1.40;;;9.30;99.90;;;;;;5088640;28;20429;-64
2023/11/08 04:19:56;;;;;;;3.00;1.50;;;9.30;99.90;;;;;;5087415;28;21442;-64
2023/11/08 04:22:21;;;;;;;1.67;1.40;;;9.30;99.90;;;;;;5086766;28;20192;-63
2023/11/08 04:24:47;;;;;;;1.83;1.57;;;9.30;99.90;;;;;;5090647;28;20425;-64
2023/11/08 04:27:13;;;;;;;2.20;1.40;;;9.20;99.90;;;;;;5088289;28;20193;-63
2023/11/08 04:29:39;;;;;;;2.87;1.47;;;9.20;99.90;;;;;;5089068;28;21036;-63
2023/11/08 04:32:05;;;;;;;4.90;1.63;;;9.20;99.90;;;;;;5088315;28;20192;-63
2023/11/08 04:34:31;;;;;;;2.93;1.63;;;9.20;99.90;;;;;;5087093;28;20179;-63
2023/11/08 04:36:57;;;;;;;2.10;1.20;;;9.30;99.90;;;;;;5085605;28;20484;-64
2023/11/08 04:39:23;;;;;;;2.90;1.30;;;9.30;99.90;;;;;;5088512;28;20180;-63
2023/11/08 04:41:49;;;;;;;2.80;1.47;;;9.30;99.90;;;;;;5088201;28;20527;-64
2023/11/08 04:44:15;;;;;;;5.93;1.50;;;9.30;99.90;;;;;;5087344;28;20199;-63
2023/11/08 04:46:41;;;;;;;3.33;1.53;;;9.30;99.90;;;;;;5092585;28;20437;-64
2023/11/08 04:49:07;;;;;;;1.80;1.40;;;9.30;99.90;;;;;;5089592;28;20183;-63
2023/11/08 04:51:33;;;;;;;1.73;1.20;;;9.30;99.90;;;;;;5091753;28;20488;-64
2023/11/08 04:53:58;;;;;;;6.53;1.60;;;9.20;99.90;;;;;;5090722;28;20451;-63
2023/11/08 04:56:24;;;;;;;4.60;3.60;;;9.30;99.90;;;;;;5093660;28;20882;-64
2023/11/08 04:58:50;;;;;;;1.60;1.23;;;9.30;99.90;;;;;;5093318;28;20184;-64
2023/11/08 05:01:15;;;;;;;4.13;1.30;;;9.20;99.90;;;;;;5091341;28;20227;-64
2023/11/08 05:03:41;;;;;;;2.20;1.20;;;9.20;99.90;;;;;;5091782;28;20184;-64
2023/11/08 05:06:07;;;;;;;2.83;1.63;;;9.20;99.90;;;;;;5088400;28;20968;-64
2023/11/08 05:08:33;;;;;;;2.70;1.47;;;9.20;99.90;;;;;;5091552;28;20574;-63
2023/11/08 05:10:58;;;;;;;4.60;1.63;;;9.20;99.90;;;;;;5089249;28;20184;-63
2023/11/08 05:13:24;;;;;;;2.43;1.67;;;9.20;99.90;;;;;;5090819;28;20232;-64
2023/11/08 05:15:50;;;;;;;3.20;1.37;;;9.10;99.90;;;;;;5091624;28;20275;-64
2023/11/08 05:18:16;;;;;;;3.50;1.60;;;9.10;99.90;;;;;;5091827;28;20278;-64
2023/11/08 05:20:43;;;;;;;2.60;1.60;;;9.20;99.90;;;;;;5094197;28;20458;-64
2023/11/08 05:23:11;;;;;;;2.53;1.80;;;9.20;99.90;;;;;;5089523;28;20185;-64
2023/11/08 05:25:40;;;;;;;3.90;1.97;;;9.30;99.90;;;;;;5088794;28;20434;-64
2023/11/08 05:28:06;;;;;;;3.43;1.67;;;9.30;99.90;;;;;;5091156;28;21174;-64
2023/11/08 05:30:32;;;;;;;3.27;1.50;;;9.30;99.90;;;;;;5090189;28;20418;-64
2023/11/08 05:32:58;;;;;;;3.10;1.60;;;9.30;99.90;;;;;;5087605;28;20496;-64
2023/11/08 05:35:25;;;;;;;3.63;1.70;;;9.20;99.90;;;;;;5091088;28;20520;-63
2023/11/08 05:37:50;;;;;;;3.00;1.60;;;9.10;99.90;;;;;;5091091;28;20360;-64
2023/11/08 05:40:16;;;;;;;7.23;1.83;;;9.10;99.90;;;;;;5089721;28;20910;-64
2023/11/08 05:42:42;;;;;;;3.57;1.77;;;9.10;99.90;;;;;;5089897;28;20188;-64
2023/11/08 05:45:08;;;;;;;3.80;1.70;;;9.10;99.90;;;;;;5093422;28;21264;-63
2023/11/08 05:47:35;;;;;;;3.80;1.30;;;9.10;99.90;;;;;;5091035;28;20200;-63
2023/11/08 05:50:01;;;;;;;2.90;1.40;;;9.20;99.90;;;;;;5090796;28;20437;-64
2023/11/08 05:52:27;;;;;;;3.73;1.43;;;9.20;99.90;;;;;;5083250;28;20437;-63
2023/11/08 05:54:53;;;;;;;1.53;1.27;;;9.10;99.90;;;;;;5088209;28;20937;-64
2023/11/08 05:57:18;;;;;;;3.03;1.50;;;9.20;99.90;;;;;;5088678;28;20456;-63
2023/11/08 05:59:44;;;;;;;3.10;1.40;;;9.20;99.90;;;;;;5090815;28;20192;-63
2023/11/08 06:02:10;;;;;;;1.30;1.20;;;9.10;99.90;;;;;;5087449;28;20433;-63
2023/11/08 06:04:37;;;;;;;1.70;1.40;;;9.10;99.90;;;;;;5086467;28;20188;-63
2023/11/08 06:07:04;;;;;;;4.23;1.67;;;9.10;99.90;;;;;;5088908;28;20435;-65
2023/11/08 06:09:30;;;;;;;3.97;2.33;;;9.10;99.90;;;;;;5090047;28;20422;-63
2023/11/08 06:11:56;;;;;;;4.17;1.93;;;9.10;99.90;;;;;;5090203;28;20433;-64
2023/11/08 06:14:21;;;;;;;4.60;2.20;;;9.20;99.90;;;;;;5088943;28;20193;-64
2023/11/08 06:16:47;;;;;;;3.07;1.97;;;9.20;99.90;;;;;;5089098;28;20952;-64
2023/11/08 06:19:13;;;;;;;4.73;1.90;;;9.10;99.90;;;;;;5087252;28;20250;-64
2023/11/08 06:21:39;;;;;;;3.47;2.27;;;9.10;99.90;;;;;;5087662;28;20754;-63
2023/11/08 06:24:05;;;;;;;4.10;1.70;;;9.20;99.90;;;;;;5086924;28;20642;-64
2023/11/08 06:26:30;;;;;;;3.00;1.90;;;9.20;99.90;;;;;;5087482;28;20176;-63
2023/11/08 06:28:56;;;;;;;2.20;2.00;;;9.20;99.90;;;;;;5089767;28;20426;-64
2023/11/08 06:31:22;;;;;;;3.23;1.83;;;9.20;99.90;;;;;;5087170;28;20193;-66
2023/11/08 06:33:48;;;;;;;2.63;1.80;;;9.20;99.90;;;;;;5092648;28;20184;-63
2023/11/08 06:36:17;;;;;;;2.87;2.10;;;9.10;99.90;;;;;;5087669;28;20188;-63
2023/11/08 06:38:43;;;;;;;3.50;1.90;;;9.00;99.90;;;;;;5089692;28;20442;-63
2023/11/08 06:41:09;;;;;;;4.83;1.90;;;9.00;99.90;;;;;;5087961;28;20491;-64
2023/11/08 06:43:35;;;;;;;2.30;1.70;;;8.90;99.90;;;;;;5085080;28;20222;-63
2023/11/08 06:46:01;;;;;;;4.37;1.80;;;8.90;99.90;;;;;;5084633;28;20467;-64
2023/11/08 06:48:26;;;;;;;2.17;1.63;;;9.00;99.90;;;;;;5065619;28;20213;-63
2023/11/08 06:50:52;;;;;;;6.10;2.17;;;9.00;99.90;;;;;;5069145;28;20192;-64
2023/11/08 06:53:18;;;;;;;5.40;1.60;;;9.00;99.90;;;;;;5068972;28;20473;-63
2023/11/08 06:55:45;;;;;;;4.80;1.80;;;8.90;99.90;;;;;;5068312;28;20207;-63
2023/11/08 06:58:12;;;;;;;3.00;1.60;;;9.00;99.90;;;;;;5068797;28;20180;-63
2023/11/08 07:00:38;;;;;;;4.03;1.40;;;9.00;99.90;;;;;;5066042;28;20968;-63
2023/11/08 07:03:05;;;;;;;4.03;1.60;;;9.10;99.90;;;;;;5071070;28;20480;-64
2023/11/08 07:05:33;;;;;;;2.90;1.97;;;9.10;99.90;;;;;;5067277;28;20466;-64
2023/11/08 07:07:59;;;;;;;4.23;2.23;;;9.00;99.90;;;;;;5067591;28;20437;-63
2023/11/08 07:10:25;;;;;;;2.43;2.10;;;9.00;99.90;;;;;;5067399;28;20458;-64
2023/11/08 07:12:52;;;;;;;4.23;2.07;;;9.00;99.90;;;;;;5067490;28;20188;-64
2023/11/08 07:15:19;;;;;;;6.57;2.13;;;9.00;99.90;;;;;;5065478;28;20181;-63
2023/11/08 07:17:45;;;;;;;3.03;1.83;;;9.10;99.90;;;;;;5065860;28;20440;-64
2023/11/08 07:20:11;;;;;;;7.73;2.40;;;9.10;99.90;;;;;;5064122;28;20466;-63
2023/11/08 07:22:37;;;;;;;6.20;1.90;;;9.10;99.90;;;;;;5062925;28;20439;-63
2023/11/08 07:25:03;;;;;;;6.43;2.10;;;9.30;99.90;;;;;;5067367;28;20438;-64
2023/11/08 07:27:30;;;;;;;6.80;2.20;;;9.30;99.90;;;;;;5063675;28;20466;-63
2023/11/08 07:29:56;;;;;;;3.87;1.60;;;9.30;99.90;;;;;;5064944;28;20447;-63
2023/11/08 07:32:22;;;;;;;4.70;1.90;;;9.30;99.90;;;;;;5068503;28;20416;-63
2023/11/08 07:34:48;;;;;;;3.00;2.10;;;9.30;99.90;;;;;;5065695;28;20427;-64
2023/11/08 07:37:14;;;;;;;3.47;1.90;;;9.30;99.90;;;;;;5047879;28;20431;-64
2023/11/08 07:39:40;;;;;;;5.07;2.30;;;9.20;99.90;;;;;;5066185;28;20465;-62
2023/11/08 07:42:07;;;;;;;4.63;1.87;;;9.30;99.90;;;;;;5064659;28;20689;-64
2023/11/08 07:44:34;;;;;;;6.40;2.67;;;9.30;99.90;;;;;;5064035;28;20521;-64
2023/11/08 07:46:59;;;;;;;5.90;2.40;;;9.30;99.90;;;;;;5079515;28;20441;-63
2023/11/08 07:49:26;;;;;;;8.80;2.60;;;9.50;99.90;;;;;;5088293;28;20478;-63
2023/11/08 07:51:52;;;;;;;7.90;2.50;;;9.60;99.90;;;;;;5086695;28;20914;-64
2023/11/08 07:54:18;;;;;;;2.90;2.00;;;9.70;99.90;;;;;;5085514;28;20493;-64
2023/11/08 07:56:43;;;;;;;7.20;2.57;;;9.80;99.90;;;;;;5087218;28;20184;-65
2023/11/08 07:59:09;;;;;;;3.57;2.30;;;9.90;99.90;;;;;;5086479;28;20302;-62
2023/11/08 08:01:35;;;;;;;3.73;2.27;;;10.00;99.90;;;;;;5086754;28;20208;-63
2023/11/08 08:04:01;;;;;;;5.07;2.60;;;10.00;99.90;;;;;;5086402;28;20425;-64
2023/11/08 08:06:27;;;;;;;4.93;2.20;;;10.10;99.90;;;;;;5086200;28;20233;-63
2023/11/08 08:08:55;;;;;;;4.73;2.97;;;10.00;99.90;;;;;;5087253;28;20437;-62
2023/11/08 08:11:21;;;;;;;4.03;1.97;;;10.00;99.90;;;;;;5085490;28;20222;-63
2023/11/08 08:13:46;;;;;;;5.30;2.87;;;10.10;99.90;;;;;;5086008;28;21115;-63
2023/11/08 08:16:15;;;;;;;4.93;2.20;;;10.30;99.90;;;;;;5087317;28;20179;-62
2023/11/08 08:18:45;;;;;;;3.50;2.10;;;10.30;99.90;;;;;;5086290;28;20191;-64
2023/11/08 08:21:11;;;;;;;5.37;2.47;;;10.20;99.90;;;;;;5089333;28;20861;-63
2023/11/08 08:23:37;;;;;;;4.33;2.07;;;10.20;99.90;;;;;;5089515;28;20430;-64
2023/11/08 08:26:03;;;;;;;5.40;2.30;;;10.10;99.90;;;;;;5090703;28;20970;-62
2023/11/08 08:28:34;;;;;;;3.63;1.77;;;10.30;99.90;;;;;;5090854;28;20421;-65
2023/11/08 08:31:03;;;;;;;4.43;2.03;;;10.40;99.90;;;;;;5091069;28;20660;-65
2023/11/08 08:33:29;;;;;;;9.53;2.23;;;10.60;99.90;;;;;;5087567;28;21083;-64
2023/11/08 08:35:56;;;;;;;5.30;2.50;;;10.60;99.90;;;;;;5091026;28;20660;-64
2023/11/08 08:38:23;;;;;;;5.10;2.20;;;10.70;99.90;;;;;;5089836;28;20180;-62
2023/11/08 08:40:49;;;;;;;4.97;1.90;;;10.60;99.90;;;;;;5090403;28;20555;-63
2023/11/08 08:43:17;;;;;;;3.33;1.90;;;10.80;99.90;;;;;;5087002;28;20434;-65
2023/11/08 08:45:43;;;;;;;6.30;2.33;;;11.00;99.90;;;;;;5090392;28;20455;-62
2023/11/08 08:48:09;;;;;;;4.20;1.90;;;11.20;99.90;;;;;;5090710;28;20426;-64
2023/11/08 08:50:36;;;;;;;4.57;1.60;;;11.50;99.90;;;;;;5089136;28;20496;-64
2023/11/08 08:53:03;;;;;;;2.93;1.87;;;11.50;99.90;;;;;;5089244;28;20187;-65
2023/11/08 08:55:29;;;;;;;3.80;1.50;;;11.80;99.90;;;;;;5090365;28;20437;-64
2023/11/08 08:57:54;;;;;;;6.10;1.90;;;11.90;99.90;;;;;;5090225;28;20455;-64
2023/11/08 09:00:22;;;;;;;6.07;1.70;;;12.00;99.90;;;;;;5092701;28;20223;-63
2023/11/08 09:02:49;;;;;;;3.00;2.00;;;12.10;99.90;;;;;;5089521;28;20188;-63
2023/11/08 09:05:18;;;;;;;4.20;2.10;;;12.20;99.90;;;;;;5089520;28;20429;-62
2023/11/08 09:07:44;;;;;;;5.00;1.80;;;12.30;99.90;;;;;;5089815;28;20468;-62
2023/11/08 09:10:10;;;;;;;3.23;2.33;;;12.30;99.90;;;;;;5094297;28;20430;-62
2023/11/08 09:12:37;;;;;;;4.93;1.60;;;12.40;99.90;;;;;;5088839;28;20425;-64
2023/11/08 09:15:04;;;;;;;6.60;1.93;;;12.60;99.90;;;;;;5089081;28;20436;-63
2023/11/08 09:17:31;;;;;;;4.50;2.03;;;12.70;99.90;;;;;;5093975;28;20494;-64
2023/11/08 09:19:56;;;;;;;2.20;1.40;;;12.60;99.90;;;;;;5089686;28;20423;-62
2023/11/08 09:22:22;;;;;;;6.70;1.80;;;12.80;99.90;;;;;;5088931;28;20841;-63
2023/11/08 09:24:48;;;;;;;1.70;1.30;;;12.90;99.90;;;;;;5087478;28;20272;-63
2023/11/08 09:27:13;;;;;;;3.07;1.40;;;13.10;99.90;;;;;;5089551;28;20840;-64
2023/11/08 09:29:39;;;;;;;3.80;1.70;;;13.20;99.90;;;;;;5089137;28;20267;-64
2023/11/08 09:32:05;;;;;;;7.23;1.40;;;13.00;99.90;;;;;;5088003;28;20197;-64
2023/11/08 09:34:32;;;;;;;4.70;1.40;;;12.80;99.90;;;;;;5087561;28;20173;-63
2023/11/08 09:37:00;;;;;;;5.83;1.70;;;12.60;99.90;;;;;;5089266;28;20596;-65
2023/11/08 09:39:29;;;;;;;3.50;1.13;;;12.40;99.90;;;;;;5087601;28;20414;-63
2023/11/08 09:41:56;;;;;;;2.87;1.40;;;12.20;99.90;;;;;;5089539;28;20472;-64
2023/11/08 09:44:24;;;;;;;4.47;1.67;;;12.10;99.90;;;;;;5086826;28;20471;-65
2023/11/08 09:46:52;;;;;;;3.43;1.40;;;12.20;99.90;;;;;;5087927;28;20508;-64
2023/11/08 09:49:17;;;;;;;2.10;1.40;;;12.30;99.90;;;;;;5070300;28;20422;-65
2023/11/08 09:51:43;;;;;;;4.97;2.20;;;12.50;99.90;;;;;;5087530;28;20478;-63
2023/11/08 09:54:12;;;;;;;4.97;1.93;;;12.70;99.90;;;;;;5087833;28;20188;-63
2023/11/08 09:56:44;;;;;;;3.07;1.50;;;12.60;99.90;;;;;;5088781;28;20184;-63
2023/11/08 09:59:14;;;;;;;3.20;1.57;;;12.70;99.90;;;;;;5087638;28;20422;-62
2023/11/08 10:01:44;;;;;;;4.10;1.20;;;13.00;99.90;;;;;;5056675;28;20466;-65
2023/11/08 10:04:18;;;;;;;4.80;1.90;;;13.20;99.90;;;;;;5088024;28;20928;-64
2023/11/08 10:06:44;;;;;;;3.67;1.60;;;13.10;99.90;;;;;;5089018;28;20536;-63
2023/11/08 10:09:11;;;;;;;3.13;1.13;;;13.10;99.90;;;;;;5088106;28;20438;-63
2023/11/08 10:11:39;;;;;;;5.37;1.20;;;13.10;99.90;;;;;;5087915;28;20488;-65
2023/11/08 10:14:05;;;;;;;4.23;1.20;;;13.10;99.90;;;;;;5087000;28;20536;-65
2023/11/08 10:16:46;;;;;;;3.10;1.37;;;13.20;99.90;;;;;;5087690;28;20433;-62
2023/11/08 10:19:12;;;;;;;5.17;1.80;;;13.00;99.90;;;;;;5087466;28;20437;-62
2023/11/08 10:21:45;;;;;;;2.00;1.30;;;13.00;99.90;;;;;;5091564;28;20469;-64
2023/11/08 10:24:14;;;;;;;2.70;1.50;;;13.10;99.90;;;;;;5087599;28;21027;-64
2023/11/08 10:26:42;;;;;;;5.97;2.33;;;13.10;99.90;;;;;;5088469;28;21180;-64
2023/11/08 10:29:11;;;;;;;5.40;1.57;;;13.10;99.90;;;;;;5087301;28;21439;-65
2023/11/08 10:31:44;;;;;;;4.00;1.50;;;13.00;99.90;;;;;;5081003;28;21120;-63
2023/11/08 10:34:11;;;;;;;6.70;1.40;;;13.00;99.90;;;;;;5086701;28;20464;-63
2023/11/08 10:36:38;;;;;;;4.20;1.40;;;13.10;99.90;;;;;;5087271;28;20438;-63
2023/11/08 10:39:19;;;;;;;3.87;1.27;;;13.10;99.90;;;;;;5088465;28;20440;-62
2023/11/08 10:41:47;;;;;;;5.00;1.07;;;13.20;99.90;;;;;;5090003;28;20472;-64
2023/11/08 10:44:22;;;;;;;5.50;2.50;;;13.10;99.90;;;;;;5087593;28;20520;-63
2023/11/08 10:46:57;;;;;;;2.93;1.07;;;13.20;99.90;;;;;;5089359;28;20548;-62
2023/11/08 10:49:23;;;;;;;2.67;1.40;;;13.10;99.90;;;;;;5086464;28;20512;-65
2023/11/08 10:51:50;;;;;;;2.87;1.20;;;13.00;99.90;;;;;;5089451;28;20422;-62
2023/11/08 10:54:16;;;;;;;4.17;1.40;;;12.80;99.90;;;;;;5088150;28;20445;-64
2023/11/08 10:56:45;;;;;;;2.97;1.80;;;12.70;99.90;;;;;;5091272;28;20425;-64
2023/11/08 10:59:12;;;;;;;3.60;1.27;;;12.70;99.90;;;;;;5089279;28;20439;-65
2023/11/08 11:01:41;;;;;;;7.77;2.47;;;12.60;99.90;;;;;;5089331;28;20531;-62
2023/11/08 11:04:11;;;;;;;3.57;1.53;;;12.50;99.90;;;;;;5088549;28;20461;-62
2023/11/08 11:06:38;;;;;;;7.73;1.70;;;12.50;99.90;;;;;;5089380;28;20434;-64
2023/11/08 11:09:12;;;;;;;2.23;1.20;;;12.50;99.90;;;;;;5090139;28;20454;-62
2023/11/08 11:11:42;;;;;;;2.73;1.50;;;12.50;99.90;;;;;;5090802;28;20422;-63
2023/11/08 11:14:13;;;;;;;5.40;1.30;;;12.50;99.90;;;;;;5088697;28;21210;-62
2023/11/08 11:16:56;;;;;;;4.03;1.40;;;12.50;99.90;;;;;;5089802;28;20431;-65
2023/11/08 11:19:26;;;;;;;4.00;1.40;;;12.50;99.90;;;;;;5089485;28;20515;-64
2023/11/08 11:21:56;;;;;;;5.90;1.60;;;12.60;99.90;;;;;;5089551;28;20653;-62
2023/11/08 11:24:42;;;;;;;3.10;1.73;;;12.70;99.90;;;;;;5088336;28;20432;-65
2023/11/08 11:27:37;;;;;;;3.20;1.33;;;12.60;99.90;;;;;;5092336;28;21112;-62
2023/11/08 11:30:26;;;;;;;4.23;1.37;;;12.80;99.90;;;;;;5089252;28;20431;-64
2023/11/08 11:32:53;;;;;;;3.17;1.30;;;12.90;99.90;;;;;;5090033;28;20484;-65
2023/11/08 11:35:22;;;;;;;3.50;1.60;;;13.00;99.90;;;;;;5088450;28;20445;-64
2023/11/08 11:38:06;;;;;;;3.23;1.10;;;13.10;99.90;;;;;;5089064;28;20426;-63
2023/11/08 11:40:35;;;;;;;7.83;1.20;;;13.20;99.90;;;;;;5089328;28;20462;-63
2023/11/08 11:43:02;;;;;;;2.27;1.43;;;13.20;99.90;;;;;;5087465;28;20442;-64
2023/11/08 11:45:31;;;;;;;2.60;1.47;;;13.20;99.90;;;;;;5088614;28;20427;-63
2023/11/08 11:47:57;;;;;;;3.80;1.47;;;13.30;99.90;;;;;;5092321;28;20466;-62
2023/11/08 11:50:27;;;;;;;4.20;1.47;;;13.30;99.90;;;;;;5088906;28;21291;-65
2023/11/08 11:52:53;;;;;;;3.00;1.20;;;13.50;99.90;;;;;;5088527;28;20441;-64
2023/11/08 11:55:21;;;;;;;3.33;1.50;;;13.70;99.90;;;;;;5087685;28;20434;-63
2023/11/08 11:57:47;;;;;;;5.20;1.73;;;13.90;99.90;;;;;;5088865;28;20210;-65
2023/11/08 12:00:13;;;;;;;4.17;1.60;;;14.10;99.90;;;;;;5085678;28;20454;-62
2023/11/08 12:02:39;;;;;;;2.70;1.30;;;14.20;99.90;;;;;;5088849;28;20241;-63
2023/11/08 12:05:06;;;;;;;3.37;1.27;;;14.20;99.90;;;;;;5089008;28;20426;-64
2023/11/08 12:07:33;;;;;;;4.40;1.40;;;14.00;99.90;;;;;;5088951;28;20191;-62
2023/11/08 12:10:10;;;;;;;5.20;1.20;;;13.80;99.90;;;;;;5087376;28;20420;-63
2023/11/08 12:12:38;;;;;;;1.90;1.20;;;13.70;99.90;;;;;;5089305;28;20437;-65
2023/11/08 12:15:20;;;;;;;1.63;1.10;;;13.60;99.90;;;;;;5088281;28;20936;-62
2023/11/08 12:17:53;;;;;;;3.80;1.30;;;13.50;99.90;;;;;;5089057;28;20449;-63
2023/11/08 12:20:20;;;;;;;1.40;1.20;;;13.40;99.90;;;;;;5088388;28;20519;-62
2023/11/08 12:22:50;;;;;;;2.03;1.40;;;13.30;99.90;;;;;;5091570;28;20430;-65
2023/11/08 12:25:20;;;;;;;2.83;1.50;;;13.30;99.90;;;;;;5088148;28;20492;-65
2023/11/08 12:27:55;;;;;;;3.10;1.20;;;13.40;99.90;;;;;;5088746;28;20427;-65
2023/11/08 12:30:23;;;;;;;4.80;1.40;;;13.40;99.90;;;;;;5087649;28;20497;-64
2023/11/08 12:32:50;;;;;;;4.63;1.30;;;13.50;99.90;;;;;;5087918;28;20942;-64
2023/11/08 12:35:18;;;;;;;3.77;1.10;;;13.50;99.90;;;;;;5088158;28;20426;-64
2023/11/08 12:37:44;;;;;;;2.97;1.40;;;13.50;99.90;;;;;;5085947;28;20867;-65
2023/11/08 12:40:23;;;;;;;3.03;1.50;;;13.50;99.90;;;;;;5069910;28;20448;-64
2023/11/08 12:42:50;;;;;;;2.30;1.30;;;13.50;99.90;;;;;;5087945;28;20437;-66
2023/11/08 12:45:32;;;;;;;4.77;1.13;;;13.40;99.90;;;;;;5088259;28;21273;-65
2023/11/08 12:48:09;;;;;;;6.80;1.30;;;13.40;99.90;;;;;;5087185;28;20438;-64
2023/11/08 12:50:36;;;;;;;2.20;1.30;;;13.40;99.90;;;;;;5088004;28;20434;-65
2023/11/08 12:53:03;;;;;;;4.20;1.07;;;13.30;99.90;;;;;;5088317;28;20916;-64